Time;durP1;ratioP1;P1;durP2;ratioP2;P2;SDS_P1;SDS_P2;PMS_P1;PMS_P2;Temp;Humidity;BMP_temperature;BMP_pressure;BME280_temperature;BME280_humidity;BME280_pressure;Samples;Min_cycle;Max_cycle;Signal;HPM_P1;HPM_P2
2023/12/23 00:00:20;;;;;;;0.37;0.37;;;;;;;7.74;100.00;94879.31;5010754;28;20213;-87
2023/12/23 00:02:46;;;;;;;0.50;0.50;;;;;;;7.76;100.00;94877.38;5009539;28;20230;-86
2023/12/23 00:05:13;;;;;;;0.50;0.50;;;;;;;7.81;100.00;94884.53;5011104;28;20646;-86
2023/12/23 00:07:39;;;;;;;0.40;0.40;;;;;;;7.82;100.00;94881.00;5010971;28;20195;-86
2023/12/23 00:10:11;;;;;;;1.63;0.70;;;;;;;7.70;100.00;94877.31;5011159;28;20211;-86
2023/12/23 00:12:37;;;;;;;0.50;0.50;;;;;;;7.66;100.00;94929.84;5011531;28;20600;-87
2023/12/23 00:15:04;;;;;;;0.47;0.47;;;;;;;7.65;100.00;94931.63;5010956;28;20665;-86
2023/12/23 00:17:31;;;;;;;0.40;0.40;;;;;;;7.65;100.00;94925.69;5010589;28;20199;-86
2023/12/23 00:19:57;;;;;;;0.40;0.40;;;;;;;7.67;100.00;94922.00;5007268;28;20202;-86
2023/12/23 00:22:23;;;;;;;0.50;0.50;;;;;;;7.64;100.00;94922.34;5010685;28;20716;-85
2023/12/23 00:24:50;;;;;;;0.40;0.40;;;;;;;7.68;100.00;94913.34;5011106;28;20203;-86
2023/12/23 00:27:18;;;;;;;0.83;0.40;;;;;;;7.70;100.00;94916.50;5010327;28;20201;-87
2023/12/23 00:29:44;;;;;;;0.50;0.50;;;;;;;7.66;100.00;94894.78;5009989;28;20226;-86
2023/12/23 00:32:10;;;;;;;0.53;0.53;;;;;;;7.68;100.00;94880.03;5011367;28;20218;-86
2023/12/23 00:34:37;;;;;;;0.43;0.43;;;;;;;7.69;100.00;94903.88;5009739;28;20201;-86
2023/12/23 00:37:04;;;;;;;0.40;0.40;;;;;;;7.75;100.00;94918.53;5010655;28;20210;-87
2023/12/23 00:39:30;;;;;;;0.57;0.50;;;;;;;7.69;100.00;94916.69;4991227;28;20917;-87
2023/12/23 00:41:56;;;;;;;0.50;0.50;;;;;;;7.65;100.00;94911.13;4992517;28;20715;-86
2023/12/23 00:44:26;;;;;;;1.07;0.60;;;;;;;7.62;100.00;94919.16;5010948;28;20223;-86
2023/12/23 00:46:53;;;;;;;0.63;0.63;;;;;;;7.65;100.00;94923.13;5010580;28;20199;-86
2023/12/23 00:49:19;;;;;;;0.43;0.43;;;;;;;7.63;100.00;94931.00;4993196;28;20223;-87
2023/12/23 00:51:46;;;;;;;0.43;0.43;;;;;;;7.73;100.00;94951.22;5003818;28;20207;-86
2023/12/23 00:54:12;;;;;;;0.63;0.53;;;;;;;7.73;100.00;94941.78;5010098;28;20234;-87
2023/12/23 00:56:39;;;;;;;0.50;0.50;;;;;;;7.68;100.00;94949.22;5010867;28;20234;-86
2023/12/23 00:59:06;;;;;;;0.47;0.47;;;;;;;7.62;100.00;94932.75;5010509;28;20191;-86
2023/12/23 01:01:36;;;;;;;1.60;0.50;;;;;;;7.67;100.00;94941.69;5005611;28;20214;-86
2023/12/23 01:04:03;;;;;;;0.40;0.40;;;;;;;7.61;100.00;94946.53;4991184;28;20243;-87
2023/12/23 01:06:30;;;;;;;0.43;0.43;;;;;;;7.58;100.00;94926.38;4998560;28;20204;-85
2023/12/23 01:08:56;;;;;;;0.50;0.50;;;;;;;7.57;100.00;94916.31;5014517;28;20321;-87
2023/12/23 01:11:23;;;;;;;1.90;0.50;;;;;;;7.61;100.00;94918.34;5022251;28;20195;-86
2023/12/23 01:13:49;;;;;;;1.37;0.50;;;;;;;7.68;100.00;94904.84;5020298;28;20222;-86
2023/12/23 01:16:15;;;;;;;0.40;0.40;;;;;;;7.71;100.00;94886.53;5021153;28;20199;-86
2023/12/23 01:18:43;;;;;;;0.60;0.57;;;;;;;7.71;100.00;94918.09;5020257;28;20191;-87
2023/12/23 01:21:10;;;;;;;0.40;0.40;;;;;;;7.68;100.00;94915.09;5023640;28;20456;-86
2023/12/23 01:23:36;;;;;;;0.50;0.50;;;;;;;7.68;100.00;94897.97;5018444;28;20226;-87
2023/12/23 01:26:02;;;;;;;0.50;0.40;;;;;;;7.73;100.00;94921.28;5020893;28;20212;-86
2023/12/23 01:28:29;;;;;;;0.60;0.40;;;;;;;7.77;100.00;94896.91;5018559;28;20234;-86
2023/12/23 01:30:55;;;;;;;0.50;0.50;;;;;;;7.70;100.00;94890.88;5018771;28;20210;-86
2023/12/23 01:33:24;;;;;;;0.47;0.47;;;;;;;7.70;100.00;94910.59;5022971;23;20324;-85
2023/12/23 01:35:52;;;;;;;0.40;0.40;;;;;;;7.69;100.00;94902.13;5000219;28;20204;-87
2023/12/23 01:38:18;;;;;;;0.40;0.40;;;;;;;7.71;100.00;94907.03;5008359;28;20230;-87
2023/12/23 01:40:45;;;;;;;0.40;0.40;;;;;;;7.75;100.00;94910.84;5010261;28;20199;-86
2023/12/23 01:43:12;;;;;;;0.40;0.40;;;;;;;7.73;100.00;94892.28;5011795;28;20306;-87
2023/12/23 01:45:39;;;;;;;0.37;0.30;;;;;;;7.79;100.00;94901.84;5011423;28;20214;-84
2023/12/23 01:48:11;;;;;;;0.37;0.37;;;;;;;7.71;100.00;94900.16;5003463;28;20286;-87
2023/12/23 01:50:38;;;;;;;0.40;0.40;;;;;;;7.78;100.00;94902.81;4991271;28;20184;-86
2023/12/23 01:53:06;;;;;;;0.30;0.30;;;;;;;7.78;100.00;94900.25;4990595;28;20403;-86
2023/12/23 01:55:34;;;;;;;0.30;0.30;;;;;;;7.73;100.00;94916.16;4985949;28;20208;-86
2023/12/23 01:58:02;;;;;;;0.40;0.40;;;;;;;7.63;100.00;94923.31;4990073;28;20204;-86
2023/12/23 02:00:35;;;;;;;0.40;0.40;;;;;;;7.64;100.00;94973.56;4990512;28;20199;-86
2023/12/23 02:03:02;;;;;;;0.40;0.40;;;;;;;7.60;100.00;94998.75;4990557;28;20310;-87
2023/12/23 02:05:29;;;;;;;0.30;0.30;;;;;;;7.56;100.00;94999.25;4990763;28;20203;-86
2023/12/23 02:07:55;;;;;;;0.63;0.50;;;;;;;7.52;100.00;95008.22;4990966;28;20196;-86
2023/12/23 02:10:24;;;;;;;0.40;0.40;;;;;;;7.48;100.00;95010.38;4990922;28;20219;-86
2023/12/23 02:13:03;;;;;;;0.43;0.43;;;;;;;7.45;100.00;95035.53;4989188;28;20220;-86
2023/12/23 02:15:31;;;;;;;0.50;0.50;;;;;;;7.49;100.00;95032.44;4991114;28;20262;-86
2023/12/23 02:18:01;;;;;;;0.47;0.47;;;;;;;7.54;100.00;95071.13;4989511;28;20200;-86
2023/12/23 02:20:28;;;;;;;0.83;0.50;;;;;;;7.54;100.00;95060.09;4990477;28;20289;-86
2023/12/23 02:22:56;;;;;;;0.40;0.40;;;;;;;7.55;100.00;95087.31;4990462;28;20230;-86
2023/12/23 02:25:23;;;;;;;0.63;0.40;;;;;;;7.53;100.00;95099.47;4990555;28;20588;-86
2023/12/23 02:27:55;;;;;;;0.40;0.40;;;;;;;7.50;100.00;95084.47;4988134;28;20200;-86
2023/12/23 02:30:24;;;;;;;0.57;0.40;;;;;;;7.47;100.00;95095.06;4989033;28;20250;-86
2023/12/23 02:32:51;;;;;;;0.50;0.30;;;;;;;7.44;100.00;95138.94;4989874;28;20239;-87
2023/12/23 02:35:17;;;;;;;0.40;0.40;;;;;;;7.44;100.00;95134.59;4990877;28;20203;-86
2023/12/23 02:37:47;;;;;;;0.80;0.40;;;;;;;7.50;100.00;95108.31;4990370;28;20199;-85
2023/12/23 02:40:15;;;;;;;0.57;0.57;;;;;;;7.45;100.00;95120.84;4990456;28;20203;-86
2023/12/23 02:42:44;;;;;;;0.50;0.50;;;;;;;7.41;100.00;95124.69;4991290;28;20219;-86
2023/12/23 02:45:10;;;;;;;0.40;0.40;;;;;;;7.41;100.00;95117.00;4985818;28;20210;-86
2023/12/23 02:47:37;;;;;;;0.40;0.40;;;;;;;7.34;100.00;95121.19;4990445;28;20207;-86
2023/12/23 02:50:04;;;;;;;1.70;0.40;;;;;;;7.37;100.00;95138.00;4989789;28;20219;-86
2023/12/23 02:52:32;;;;;;;0.40;0.40;;;;;;;7.33;100.00;95114.47;4990416;28;20218;-87
2023/12/23 02:54:58;;;;;;;0.30;0.30;;;;;;;7.33;100.00;95114.47;4989871;28;20876;-86
2023/12/23 02:57:28;;;;;;;0.97;0.40;;;;;;;7.33;100.00;95136.72;4990483;28;20677;-87
2023/12/23 02:59:54;;;;;;;0.60;0.40;;;;;;;7.38;100.00;95150.63;4984403;28;20201;-86
2023/12/23 03:02:21;;;;;;;0.40;0.40;;;;;;;7.31;100.00;95129.25;4990453;28;20636;-86
2023/12/23 03:04:47;;;;;;;0.40;0.40;;;;;;;7.25;100.00;95163.19;4990453;28;20209;-86
2023/12/23 03:07:17;;;;;;;0.40;0.40;;;;;;;7.25;100.00;95179.34;4990682;28;20199;-85
2023/12/23 03:09:43;;;;;;;0.47;0.47;;;;;;;7.31;100.00;95177.09;4989502;28;20215;-86
2023/12/23 03:12:10;;;;;;;0.30;0.30;;;;;;;7.31;100.00;95203.50;4989955;28;20207;-86
2023/12/23 03:14:38;;;;;;;0.67;0.60;;;;;;;7.25;100.00;95193.91;4990184;28;20226;-85
2023/12/23 03:17:04;;;;;;;0.57;0.40;;;;;;;7.26;100.00;95183.50;4988478;28;20208;-86
2023/12/23 03:19:31;;;;;;;0.40;0.40;;;;;;;7.31;100.00;95200.13;4989428;28;20204;-86
2023/12/23 03:22:00;;;;;;;0.40;0.40;;;;;;;7.23;100.00;95199.19;4989980;28;20206;-86
2023/12/23 03:24:26;;;;;;;0.30;0.30;;;;;;;7.23;100.00;95201.75;4988844;28;20219;-87
2023/12/23 03:26:53;;;;;;;0.43;0.20;;;;;;;7.22;100.00;95215.50;4989487;28;20204;-86
2023/12/23 03:29:19;;;;;;;1.10;0.40;;;;;;;7.25;100.00;95202.38;4988773;28;20230;-86
2023/12/23 03:31:47;;;;;;;0.60;0.40;;;;;;;7.24;100.00;95198.22;4991217;28;20207;-86
2023/12/23 03:34:13;;;;;;;1.60;0.40;;;;;;;7.24;100.00;95185.44;4993061;28;20238;-86
2023/12/23 03:36:40;;;;;;;0.30;0.30;;;;;;;7.25;100.00;95176.78;4992997;28;20199;-86
2023/12/23 03:39:09;;;;;;;0.30;0.30;;;;;;;7.16;100.00;95182.06;4991743;28;20210;-86
2023/12/23 03:41:36;;;;;;;0.40;0.40;;;;;;;7.24;100.00;95200.00;4992745;28;20683;-86
2023/12/23 03:44:02;;;;;;;0.83;0.40;;;;;;;7.21;100.00;95183.19;4992430;28;20234;-86
2023/12/23 03:46:28;;;;;;;0.30;0.30;;;;;;;7.20;100.00;95191.84;4992112;28;20687;-86
2023/12/23 03:48:56;;;;;;;0.30;0.30;;;;;;;7.18;100.00;95195.50;4990097;28;20200;-86
2023/12/23 03:51:23;;;;;;;0.40;0.37;;;;;;;7.26;100.00;95193.75;4992201;28;20203;-86
2023/12/23 03:53:49;;;;;;;0.30;0.30;;;;;;;7.20;100.00;95183.34;4992486;28;20245;-86
2023/12/23 03:56:19;;;;;;;0.40;0.40;;;;;;;7.24;100.00;95195.66;4992197;28;20203;-86
2023/12/23 03:58:45;;;;;;;0.50;0.50;;;;;;;7.21;100.00;95192.63;4992355;28;20200;-86
2023/12/23 04:01:15;;;;;;;0.40;0.40;;;;;;;7.23;100.00;95199.19;4991583;28;20692;-87
2023/12/23 04:03:42;;;;;;;0.30;0.30;;;;;;;7.19;100.00;95199.69;4991225;28;20234;-85
2023/12/23 04:06:12;;;;;;;0.97;0.50;;;;;;;7.23;100.00;95203.50;4991304;28;20200;-86
2023/12/23 04:08:41;;;;;;;0.50;0.40;;;;;;;7.18;100.00;95192.97;4992013;28;20199;-86
2023/12/23 04:11:07;;;;;;;0.30;0.30;;;;;;;7.32;100.00;95201.72;4991964;28;20596;-86
2023/12/23 04:13:34;;;;;;;0.30;0.30;;;;;;;7.28;100.00;95202.06;4992261;28;20219;-87
2023/12/23 04:16:29;;;;;;;0.30;0.30;;;;;;;7.30;100.00;95195.97;4992145;28;20202;-85
2023/12/23 04:18:59;;;;;;;0.40;0.40;;;;;;;7.25;100.00;95181.09;4990598;28;20249;-86
2023/12/23 04:21:28;;;;;;;0.40;0.40;;;;;;;7.21;100.00;95190.88;4983331;28;20258;-86
2023/12/23 04:24:08;;;;;;;0.40;0.40;;;;;;;7.23;100.00;95186.38;4991965;28;20318;-86
2023/12/23 04:26:35;;;;;;;0.77;0.37;;;;;;;7.22;100.00;95205.28;4991467;28;20203;-86
2023/12/23 04:29:02;;;;;;;0.30;0.30;;;;;;;7.23;100.00;95211.19;4990479;28;20203;-86
2023/12/23 04:31:28;;;;;;;0.40;0.40;;;;;;;7.33;100.00;95226.34;4991345;28;20210;-86
2023/12/23 04:33:54;;;;;;;0.93;0.30;;;;;;;7.27;100.00;95228.63;4990664;28;20224;-86
2023/12/23 04:36:22;;;;;;;0.40;0.40;;;;;;;7.25;100.00;95216.94;4989471;28;20204;-86
2023/12/23 04:38:50;;;;;;;0.50;0.50;;;;;;;7.25;100.00;95204.16;4990872;28;20239;-86
2023/12/23 04:41:17;;;;;;;0.50;0.30;;;;;;;7.19;100.00;95200.47;5007442;28;20203;-87
2023/12/23 04:43:43;;;;;;;1.13;0.40;;;;;;;7.09;100.00;95197.31;5011411;28;20603;-86
2023/12/23 04:46:10;;;;;;;0.40;0.40;;;;;;;7.17;100.00;95242.56;5004398;28;20226;-87
2023/12/23 04:48:36;;;;;;;0.43;0.40;;;;;;;7.14;100.00;95235.19;4992609;28;20208;-86
2023/12/23 04:51:02;;;;;;;0.63;0.50;;;;;;;7.17;100.00;95234.88;4990520;28;20589;-87
2023/12/23 04:53:31;;;;;;;0.33;0.33;;;;;;;7.17;100.00;95245.13;4989563;28;20255;-86
2023/12/23 04:56:05;;;;;;;0.30;0.30;;;;;;;7.11;100.00;95231.25;4990730;28;20242;-86
2023/12/23 04:58:32;;;;;;;0.40;0.40;;;;;;;7.07;100.00;95236.84;4990723;28;20608;-86
2023/12/23 05:00:58;;;;;;;0.40;0.40;;;;;;;7.04;100.00;95225.16;4990266;28;20213;-86
2023/12/23 05:03:31;;;;;;;0.53;0.50;;;;;;;7.10;100.00;95232.19;4991063;28;20227;-86
2023/12/23 05:06:00;;;;;;;0.40;0.40;;;;;;;7.14;100.00;95233.44;4991060;28;20215;-86
2023/12/23 05:08:27;;;;;;;0.53;0.53;;;;;;;7.08;100.00;95218.75;4989586;28;20200;-86
2023/12/23 05:10:53;;;;;;;0.40;0.40;;;;;;;7.06;100.00;95233.47;4990400;28;20763;-87
2023/12/23 05:13:23;;;;;;;0.40;0.40;;;;;;;7.06;100.00;95228.34;4990967;28;20235;-87
2023/12/23 05:15:51;;;;;;;0.57;0.37;;;;;;;7.07;100.00;95235.06;4989911;28;20267;-86
2023/12/23 05:18:22;;;;;;;0.40;0.40;;;;;;;7.08;100.00;95241.00;4990659;28;20685;-86
2023/12/23 05:20:48;;;;;;;0.40;0.40;;;;;;;7.15;100.00;95250.41;4990430;28;20219;-86
2023/12/23 05:23:16;;;;;;;0.40;0.40;;;;;;;7.08;100.00;95239.22;4990112;28;20238;-86
2023/12/23 05:25:43;;;;;;;0.40;0.40;;;;;;;7.03;100.00;95233.81;4985813;28;20225;-86
2023/12/23 05:28:10;;;;;;;0.50;0.50;;;;;;;7.03;100.00;95245.81;4990763;28;20226;-86
2023/12/23 05:30:40;;;;;;;0.40;0.40;;;;;;;7.12;100.00;95245.59;4988472;28;20795;-86
2023/12/23 05:33:09;;;;;;;0.37;0.37;;;;;;;7.16;100.00;95254.56;4989783;28;20286;-86
2023/12/23 05:35:36;;;;;;;0.47;0.40;;;;;;;7.10;100.00;95231.41;4989692;28;20962;-86
2023/12/23 05:38:02;;;;;;;0.40;0.40;;;;;;;7.07;100.00;95229.16;4989477;28;20569;-86
2023/12/23 05:40:29;;;;;;;0.40;0.40;;;;;;;7.07;100.00;95229.16;4988511;28;20195;-86
2023/12/23 05:42:55;;;;;;;0.30;0.30;;;;;;;7.01;100.00;95235.72;4989008;28;20230;-85
2023/12/23 05:45:28;;;;;;;0.40;0.40;;;;;;;7.03;100.00;95228.69;4989809;28;20218;-86
2023/12/23 05:47:56;;;;;;;0.40;0.40;;;;;;;7.10;100.00;95246.75;4990302;28;20262;-86
2023/12/23 05:50:22;;;;;;;0.40;0.40;;;;;;;7.04;100.00;95235.41;4988963;28;20218;-86
2023/12/23 05:52:48;;;;;;;0.30;0.30;;;;;;;7.05;100.00;95234.44;4989281;28;20729;-86
2023/12/23 05:55:15;;;;;;;1.07;0.40;;;;;;;7.11;100.00;95228.69;4987731;28;20195;-86
2023/12/23 05:57:41;;;;;;;0.40;0.40;;;;;;;7.11;100.00;95218.44;4984443;28;20204;-86
2023/12/23 06:00:09;;;;;;;0.63;0.50;;;;;;;7.00;100.00;95221.31;4989203;28;20216;-86
2023/12/23 06:02:40;;;;;;;0.40;0.40;;;;;;;7.00;100.00;95223.88;4985836;28;20199;-85
2023/12/23 06:05:08;;;;;;;0.73;0.43;;;;;;;6.99;100.00;95237.63;4989253;28;20206;-87
2023/12/23 06:07:35;;;;;;;0.30;0.30;;;;;;;7.07;100.00;95222.28;4988528;28;20210;-90
2023/12/23 06:10:02;;;;;;;0.43;0.43;;;;;;;7.09;100.00;95217.81;4989067;28;20311;-90
2023/12/23 06:12:28;;;;;;;1.03;0.50;;;;;;;6.97;100.00;95237.00;4988129;28;20665;-90
2023/12/23 06:15:09;;;;;;;0.40;0.40;;;;;;;6.98;100.00;95230.13;4987279;28;20583;-90
2023/12/23 06:17:36;;;;;;;0.40;0.40;;;;;;;7.01;100.00;95245.97;4986751;28;20849;-87
2023/12/23 06:20:04;;;;;;;1.97;0.50;;;;;;;7.01;100.00;95234.91;4988347;28;20199;-86
2023/12/23 06:22:31;;;;;;;1.80;0.50;;;;;;;6.96;100.00;95235.41;4989579;28;20210;-87
2023/12/23 06:24:58;;;;;;;0.40;0.40;;;;;;;6.98;100.00;95255.72;4989055;28;20196;-86
2023/12/23 06:27:27;;;;;;;0.40;0.40;;;;;;;6.96;100.00;95262.75;4989835;28;20214;-86
2023/12/23 06:29:53;;;;;;;0.40;0.40;;;;;;;7.03;100.00;95261.16;4986609;28;20203;-87
2023/12/23 06:32:20;;;;;;;0.50;0.50;;;;;;;7.09;100.00;95255.41;4980717;28;20207;-86
2023/12/23 06:34:46;;;;;;;0.63;0.40;;;;;;;7.11;100.00;95264.50;4989296;28;20584;-87
2023/12/23 06:37:13;;;;;;;0.50;0.50;;;;;;;7.16;100.00;95264.81;4988692;28;20207;-86
2023/12/23 06:39:40;;;;;;;0.40;0.40;;;;;;;7.10;100.00;95260.34;4988671;28;20208;-86
2023/12/23 06:42:07;;;;;;;0.50;0.50;;;;;;;7.00;100.00;95261.47;4989224;28;20199;-87
2023/12/23 06:44:34;;;;;;;0.50;0.50;;;;;;;7.00;100.00;95267.41;4988913;28;20231;-86
2023/12/23 06:47:00;;;;;;;0.97;0.50;;;;;;;7.04;100.00;95273.00;4986913;28;20207;-86
2023/12/23 06:49:27;;;;;;;0.50;0.50;;;;;;;7.01;100.00;95279.22;4988133;28;20211;-86
2023/12/23 06:51:54;;;;;;;0.47;0.47;;;;;;;6.92;100.00;95260.53;4989151;28;20223;-86
2023/12/23 06:54:20;;;;;;;0.40;0.40;;;;;;;6.87;100.00;95269.66;4988686;28;20222;-87
2023/12/23 06:56:48;;;;;;;0.40;0.40;;;;;;;6.94;100.00;95273.16;4988615;28;20207;-87
2023/12/23 06:59:14;;;;;;;0.90;0.50;;;;;;;7.00;100.00;95259.72;4988703;28;20203;-85
2023/12/23 07:01:42;;;;;;;0.50;0.50;;;;;;;7.15;100.00;95258.09;4985794;28;20208;-86
2023/12/23 07:04:09;;;;;;;0.47;0.47;;;;;;;7.09;100.00;95235.72;4987172;28;20748;-87
2023/12/23 07:06:40;;;;;;;0.60;0.50;;;;;;;6.95;100.00;95236.34;4990672;28;20210;-89
2023/12/23 07:09:07;;;;;;;0.60;0.50;;;;;;;6.95;100.00;95231.25;4991756;28;20195;-89
2023/12/23 07:11:33;;;;;;;0.40;0.40;;;;;;;6.91;100.00;95222.31;4991022;28;20215;-86
2023/12/23 07:14:10;;;;;;;1.03;0.50;;;;;;;6.91;100.00;95235.91;4990726;28;20298;-88
2023/12/23 07:16:36;;;;;;;0.60;0.60;;;;;;;6.93;100.00;95236.53;4990447;28;20209;-87
2023/12/23 07:19:03;;;;;;;0.40;0.40;;;;;;;6.94;100.00;95227.88;4988478;28;20211;-87
2023/12/23 07:21:29;;;;;;;0.50;0.50;;;;;;;6.98;100.00;95236.03;4990882;28;20601;-86
2023/12/23 07:23:56;;;;;;;0.43;0.43;;;;;;;6.91;100.00;95228.22;4990076;28;20716;-86
2023/12/23 07:26:22;;;;;;;0.50;0.50;;;;;;;6.93;100.00;95259.56;4990521;28;20200;-87
2023/12/23 07:28:51;;;;;;;0.50;0.50;;;;;;;6.97;100.00;95231.88;4988702;28;20254;-87
2023/12/23 07:31:18;;;;;;;0.50;0.50;;;;;;;7.08;100.00;95235.88;4990273;28;20215;-86
2023/12/23 07:33:47;;;;;;;0.53;0.53;;;;;;;7.03;100.00;95236.34;4987458;28;20228;-87
2023/12/23 07:36:13;;;;;;;0.83;0.60;;;;;;;6.97;100.00;95225.97;4989214;28;20199;-87
2023/12/23 07:38:40;;;;;;;0.50;0.50;;;;;;;6.98;100.00;95215.56;4991811;28;20204;-86
2023/12/23 07:41:07;;;;;;;0.40;0.40;;;;;;;7.00;100.00;95202.59;4989990;28;20196;-86
2023/12/23 07:43:37;;;;;;;0.50;0.50;;;;;;;7.07;100.00;95199.25;4987758;28;20226;-86
2023/12/23 07:46:04;;;;;;;1.00;0.60;;;;;;;7.08;100.00;95202.59;4989863;28;20188;-86
2023/12/23 07:48:32;;;;;;;0.60;0.60;;;;;;;7.11;100.00;95180.03;4990260;28;20196;-86
2023/12/23 07:50:59;;;;;;;0.50;0.50;;;;;;;7.16;100.00;95192.31;4987829;28;20235;-86
2023/12/23 07:53:25;;;;;;;0.50;0.50;;;;;;;7.15;100.00;95148.00;4991163;28;20223;-87
2023/12/23 07:55:52;;;;;;;0.57;0.50;;;;;;;7.09;100.00;95176.03;4991321;28;20202;-88
2023/12/23 07:58:23;;;;;;;0.40;0.40;;;;;;;7.17;100.00;95176.78;4990904;28;20199;-88
2023/12/23 08:00:49;;;;;;;0.40;0.40;;;;;;;7.17;100.00;95179.34;4991014;28;20190;-87
2023/12/23 08:03:16;;;;;;;0.50;0.50;;;;;;;7.15;100.00;95185.59;4990933;28;20222;-87
2023/12/23 08:05:44;;;;;;;0.50;0.50;;;;;;;7.13;100.00;95179.84;4990136;28;20765;-87
2023/12/23 08:08:11;;;;;;;0.50;0.50;;;;;;;7.16;100.00;95197.44;4990004;28;20214;-87
2023/12/23 08:10:38;;;;;;;0.40;0.40;;;;;;;7.12;100.00;95196.19;4990749;28;20248;-87
2023/12/23 08:13:10;;;;;;;0.40;0.40;;;;;;;7.09;100.00;95220.34;4991121;28;20215;-87
2023/12/23 08:15:36;;;;;;;1.17;0.40;;;;;;;7.06;100.00;95191.72;4990513;28;20208;-86
2023/12/23 08:18:03;;;;;;;0.33;0.33;;;;;;;7.03;100.00;95171.56;4990643;28;20203;-86
2023/12/23 08:20:30;;;;;;;0.40;0.40;;;;;;;7.05;100.00;95173.00;4991291;28;20335;-85
2023/12/23 08:22:58;;;;;;;0.40;0.40;;;;;;;7.13;100.00;95179.84;4988924;28;20219;-86
2023/12/23 08:25:24;;;;;;;0.40;0.40;;;;;;;7.18;100.00;95183.50;4990673;28;20287;-87
2023/12/23 08:27:53;;;;;;;0.50;0.50;;;;;;;7.12;100.00;95134.75;4992016;28;20209;-86
2023/12/23 08:30:19;;;;;;;0.40;0.40;;;;;;;7.13;100.00;95154.25;4989327;28;20235;-87
2023/12/23 08:32:46;;;;;;;0.77;0.50;;;;;;;7.12;100.00;95147.56;4990233;28;20218;-87
2023/12/23 08:35:14;;;;;;;0.40;0.40;;;;;;;7.15;100.00;95152.31;4990623;28;20222;-86
2023/12/23 08:37:40;;;;;;;0.40;0.40;;;;;;;7.07;100.00;95119.09;4990366;28;20276;-86
2023/12/23 08:40:10;;;;;;;0.40;0.40;;;;;;;7.16;100.00;95136.81;4989228;28;20571;-85
2023/12/23 08:42:38;;;;;;;0.67;0.50;;;;;;;7.08;100.00;95128.38;4990514;28;20198;-87
2023/12/23 08:45:05;;;;;;;0.40;0.40;;;;;;;7.10;100.00;95142.59;4990305;28;20199;-87
2023/12/23 08:47:32;;;;;;;0.43;0.43;;;;;;;7.16;100.00;95138.56;4990601;28;20276;-87
2023/12/23 08:49:58;;;;;;;0.40;0.40;;;;;;;7.16;100.00;95138.56;4989563;28;20207;-87
2023/12/23 08:52:25;;;;;;;0.40;0.40;;;;;;;7.15;100.00;95113.94;4990224;28;20234;-87
2023/12/23 08:54:51;;;;;;;0.40;0.40;;;;;;;7.21;100.00;95126.88;4990699;28;20199;-86
2023/12/23 08:57:19;;;;;;;0.50;0.50;;;;;;;7.27;100.00;95098.03;4990127;28;20207;-86
2023/12/23 08:59:46;;;;;;;0.40;0.40;;;;;;;7.24;100.00;95085.56;4990663;28;20227;-86
2023/12/23 09:02:12;;;;;;;0.40;0.40;;;;;;;7.18;100.00;95073.44;4989942;28;20846;-87
2023/12/23 09:04:39;;;;;;;0.40;0.40;;;;;;;7.32;100.00;95063.44;4989018;28;20226;-85
2023/12/23 09:07:06;;;;;;;0.50;0.50;;;;;;;7.28;100.00;95057.88;4989581;28;20286;-87
2023/12/23 09:09:33;;;;;;;0.50;0.50;;;;;;;7.30;99.94;95042.34;4989061;28;20789;-86
2023/12/23 09:11:59;;;;;;;0.50;0.50;;;;;;;7.32;97.76;95009.66;4988679;28;20705;-86
2023/12/23 09:14:27;;;;;;;0.97;0.50;;;;;;;7.28;97.27;94999.00;4991175;28;20605;-86
2023/12/23 09:16:54;;;;;;;0.40;0.40;;;;;;;7.36;95.94;94993.00;4991392;28;20250;-86
2023/12/23 09:19:20;;;;;;;0.40;0.40;;;;;;;7.38;95.40;94991.06;4989388;28;20210;-86
2023/12/23 09:21:46;;;;;;;0.50;0.50;;;;;;;7.40;94.18;94974.56;4989760;28;20221;-86
2023/12/23 09:24:13;;;;;;;0.60;0.60;;;;;;;7.47;95.07;94992.59;4990059;28;20620;-85
2023/12/23 09:26:41;;;;;;;0.50;0.50;;;;;;;7.49;93.82;94955.63;4988512;28;20222;-86
2023/12/23 09:29:07;;;;;;;0.40;0.40;;;;;;;7.40;92.94;94943.03;4989630;28;21208;-86
2023/12/23 09:31:35;;;;;;;0.77;0.50;;;;;;;7.49;93.08;94936.88;4990639;28;20208;-86
2023/12/23 09:34:02;;;;;;;0.40;0.40;;;;;;;7.48;93.49;94981.41;4991097;28;20231;-86
2023/12/23 09:36:28;;;;;;;0.40;0.40;;;;;;;7.51;92.42;94937.50;5006388;28;20210;-86
2023/12/23 09:38:55;;;;;;;0.40;0.40;;;;;;;7.56;91.39;94940.34;4990027;28;20200;-85
2023/12/23 09:41:24;;;;;;;0.40;0.40;;;;;;;7.53;90.07;94910.72;4990272;28;20212;-87
2023/12/23 09:44:04;;;;;;;0.40;0.40;;;;;;;7.58;89.68;94889.72;4987824;28;20310;-86
2023/12/23 09:46:32;;;;;;;1.47;0.33;;;;;;;7.64;88.75;94886.47;4991541;28;20623;-86
2023/12/23 09:49:03;;;;;;;0.53;0.50;;;;;;;7.66;87.44;94856.34;4997821;28;20200;-86
2023/12/23 09:51:32;;;;;;;0.40;0.37;;;;;;;7.60;86.53;94841.69;4999225;28;20211;-86
2023/12/23 09:54:07;;;;;;;0.50;0.50;;;;;;;7.73;87.11;94864.91;4998972;28;20250;-86
2023/12/23 09:56:37;;;;;;;0.40;0.40;;;;;;;7.68;85.67;94840.81;4993833;28;20221;-87
2023/12/23 09:59:10;;;;;;;0.40;0.40;;;;;;;7.73;85.46;94810.31;4992268;28;20220;-87
2023/12/23 10:01:54;;;;;;;0.40;0.40;;;;;;;7.73;84.79;94800.06;4998392;28;20744;-86
2023/12/23 10:04:22;;;;;;;0.43;0.43;;;;;;;7.76;84.21;94780.00;4992538;28;20223;-88
2023/12/23 10:06:49;;;;;;;0.40;0.40;;;;;;;7.78;84.02;94762.69;4988890;28;20759;-85
2023/12/23 10:09:15;;;;;;;0.40;0.40;;;;;;;7.85;84.42;94790.97;4990556;28;20685;-86
2023/12/23 10:11:42;;;;;;;0.67;0.50;;;;;;;7.84;83.39;94797.06;4989816;28;20255;-85
2023/12/23 10:14:14;;;;;;;2.17;0.60;;;;;;;7.82;83.47;94779.31;4989583;28;20223;-85
2023/12/23 10:16:41;;;;;;;0.40;0.40;;;;;;;7.81;82.42;94746.97;4988616;28;20286;-85
2023/12/23 10:19:08;;;;;;;0.40;0.40;;;;;;;7.80;83.27;94758.19;4989862;28;20955;-86
2023/12/23 10:21:57;;;;;;;0.50;0.50;;;;;;;7.87;84.31;94835.16;4988731;28;20207;-86
2023/12/23 10:24:25;;;;;;;0.40;0.40;;;;;;;7.85;84.56;94804.56;4985901;28;20314;-86
2023/12/23 10:26:51;;;;;;;0.30;0.30;;;;;;;7.91;83.83;94773.09;4989030;28;20277;-87
2023/12/23 10:29:34;;;;;;;0.40;0.40;;;;;;;7.92;83.23;94745.69;4988682;28;20203;-86
2023/12/23 10:32:03;;;;;;;0.73;0.40;;;;;;;7.91;83.10;94750.03;4985945;28;20223;-85
2023/12/23 10:34:39;;;;;;;0.50;0.50;;;;;;;7.91;82.83;94754.34;4992504;28;20242;-86
2023/12/23 10:37:16;;;;;;;1.13;0.50;;;;;;;7.99;82.86;94761.94;4999192;28;20199;-87
2023/12/23 10:39:52;;;;;;;0.47;0.47;;;;;;;8.06;82.58;94764.59;4989430;28;20236;-87
2023/12/23 10:42:34;;;;;;;0.47;0.47;;;;;;;8.09;82.49;94743.69;4992148;28;20249;-87
2023/12/23 10:45:24;;;;;;;;;;;;;;;;;;;;;
2023/12/23 10:49:03;;;;;;;0.30;0.30;;;;;;;8.03;81.49;94711.13;4995315;28;20211;-84
2023/12/23 10:51:30;;;;;;;0.30;0.30;;;;;;;8.15;81.61;94742.97;4973781;28;20215;-88
2023/12/23 10:54:08;;;;;;;0.50;0.50;;;;;;;8.09;80.78;94690.66;4990904;28;20220;-87
2023/12/23 10:56:36;;;;;;;0.50;0.47;;;;;;;8.20;80.79;94722.72;4996095;28;20293;-86
2023/12/23 10:59:06;;;;;;;0.40;0.40;;;;;;;8.21;80.17;94680.72;5000028;28;20286;-87
2023/12/23 11:01:38;;;;;;;0.40;0.40;;;;;;;8.21;79.53;94688.41;4999915;28;20210;-86
2023/12/23 11:04:06;;;;;;;0.70;0.50;;;;;;;8.13;79.07;94652.63;4999174;28;20261;-87
2023/12/23 11:06:42;;;;;;;0.40;0.40;;;;;;;8.17;80.05;94698.25;5002714;28;20274;-87
2023/12/23 11:09:17;;;;;;;1.50;0.57;;;;;;;8.16;79.62;94681.25;5000541;28;20203;-87
2023/12/23 11:11:45;;;;;;;0.40;0.40;;;;;;;8.19;78.73;94672.41;4979910;28;20207;-87
2023/12/23 11:14:11;;;;;;;1.07;0.40;;;;;;;8.23;79.22;94673.63;4997354;28;20215;-88
2023/12/23 11:16:39;;;;;;;0.50;0.50;;;;;;;8.16;79.05;94676.13;5000181;28;20215;-88
2023/12/23 11:19:09;;;;;;;0.40;0.40;;;;;;;8.17;78.62;94674.38;4993057;28;20227;-88
2023/12/23 11:21:39;;;;;;;0.93;0.40;;;;;;;8.16;79.08;94680.47;4994031;28;20196;-88
2023/12/23 11:24:35;;;;;;;0.37;0.37;;;;;;;8.17;78.62;94648.72;5011588;28;20226;-87
2023/12/23 11:27:02;;;;;;;0.50;0.50;;;;;;;8.16;78.61;94671.00;4972466;28;20235;-87
2023/12/23 11:29:29;;;;;;;0.50;0.50;;;;;;;8.11;78.50;94644.34;4972316;28;20212;-87
2023/12/23 11:32:11;;;;;;;0.47;0.47;;;;;;;8.15;78.42;94653.25;4951150;28;20668;-87
2023/12/23 11:35:05;;;;;;;0.40;0.40;;;;;;;8.28;78.55;94650.78;4978101;28;20230;-87
2023/12/23 11:37:48;;;;;;;0.60;0.60;;;;;;;8.16;77.35;94611.25;5000411;28;20254;-87
2023/12/23 11:40:22;;;;;;;0.40;0.40;;;;;;;8.18;77.32;94628.03;4991243;28;20210;-87
2023/12/23 11:42:50;;;;;;;0.50;0.50;;;;;;;8.28;77.12;94607.19;4989644;28;20302;-87